Date,TemperatureHighF,TemperatureAvgF,TemperatureLowF,DewpointHighF,DewpointAvgF,DewpointLowF,HumidityHigh,HumidityAvg,HumidityLow,PressureMaxIn,PressureMinIn,WindSpeedMaxMPH,WindSpeedAvgMPH,GustSpeedMaxMPH,PrecipitationSumIn
2013-3-1,68,50,39,40,37,34,90,65,32,30.69,30.53,1,0,1,0.00
2013-3-2,59,46,38,39,35,31,84,67,44,30.54,30.34,1,0,1,0.00
2013-3-3,51,38,26,35,19,4,78,53,20,30.46,30.35,2,0,2,0.00
2013-3-4,50,34,17,21,18,14,89,55,32,30.45,30.19,1,0,1,0.00
2013-3-5,42,34,26,32,23,17,99,67,50,30.20,29.94,1,0,1,0.00
2013-3-6,41,34,30,39,30,24,99,87,58,30.18,29.80,3,0,3,0.11
2013-3-7,53,38,24,31,25,20,86,63,33,30.27,30.18,2,0,2,0.00
2013-3-8,51,38,28,33,27,21,97,68,40,30.42,30.22,1,0,1,0.00
2013-3-9,61,41,23,26,20,15,86,51,21,30.68,30.40,2,0,2,0.00
2013-3-10,65,43,26,40,27,19,80,57,23,30.68,30.57,2,0,2,0.00
2013-3-11,57,48,37,43,40,35,93,76,59,30.60,30.47,2,0,2,0.00
2013-3-12,68,49,35,42,36,25,98,67,24,30.48,30.36,1,0,1,0.00
2013-3-13,73,53,41,41,35,30,76,54,30,30.46,30.38,0,0,0,0.00
2013-3-14,72,53,40,39,33,17,80,53,23,30.39,30.32,11,0,11,0.00
2013-3-15,62,51,40,41,37,29,86,61,31,30.46,30.40,1,0,1,0.00
2013-3-16,54,42,33,36,32,28,93,69,42,30.40,30.19,16,0,16,0.01
2013-3-17,45,36,30,28,22,16,84,57,42,30.44,30.28,1,0,1,0.01
2013-3-18,59,40,27,27,24,18,82,55,24,30.44,30.37,1,0,1,0.00
2013-3-19,51,38,28,37,27,22,99,68,38,30.40,30.04,1,0,1,0.06
2013-3-20,57,43,31,44,36,24,99,75,50,30.31,29.89,17,0,17,0.11
2013-3-21,46,35,27,28,23,18,87,64,44,30.43,30.31,1,0,1,0.00
2013-3-22,43,33,24,24,19,10,94,61,32,30.53,30.40,1,0,1,0.00
2013-3-23,28,26,24,22,21,20,87,83,77,30.53,30.50,0,0,0,0.00
2013-3-24,50,37,25,26,22,18,76,57,38,30.47,30.33,0,0,0,0.00
2013-3-25,51,42,31,31,27,23,76,56,42,30.35,30.17,0,0,0,0.00
2013-3-26,54,45,38,40,36,28,88,71,55,30.25,30.19,0,0,0,0.00
2013-3-27,63,46,30,46,39,30,99,80,43,30.26,30.17,1,0,1,0.05
2013-3-28,63,48,39,47,43,39,99,85,48,30.39,30.25,1,0,1,0.05
2013-3-29,68,53,42,49,44,42,99,77,44,30.47,30.38,1,0,1,0.02
2013-3-30,71,54,35,49,43,35,99,71,43,30.48,30.32,1,0,1,0.00
2013-3-31,69,54,36,44,40,36,99,63,38,30.34,30.19,1,0,1,0.00